CYPY

Details ICAO CYPY (YPY)
Name FORT CHIPEWYAN
Region Canada
Timezone America/Edmonton (UTC-6.0)
Plans Departing 11
Arriving 6
Stats Elevation 761 ft / 232 m (AMSL)
Location 58.767083° -111.117220°
Runways 1
Magnetic Variation 13.935° E
Sunrise 2018-05-23 10:40:20 UTC / 2018-05-23 04:40:20 Local
Sunset 2018-05-24 04:05:01 UTC / 2018-05-23 22:05:01 Local
Advertisement - Login to hide

Runways

ID Width Length Bearing (true) Bearing (mag) Surface Threshold Offset Overrun Length
03 150 ft / 46 m 5,001 ft / 1,524 m 51.06° 37.12° Asphalt 0 ft / 0 m 0 ft / 0 m
21 150 ft / 46 m 5,001 ft / 1,524 m 231.08° 217.14° Asphalt 0 ft / 0 m 0 ft / 0 m

Map

Weather


0- 5 10 15 20 25 30 35+ Temperature / ° C

Clouds and Precipitation
Forecast for 2018-05-23 18:00 UTC. Updated 2 hours ago

Ground ~20,000 ft ~40,000 ft Winds

METAR

CYPY 231800Z AUTO 24009G17KT 210V290 9SM CLR 29/09 A2974 RMK SLP075 DENSITY ALT 2700FT

TAF

TAF CYPY 231738Z 2318/2406 26007KT P6SM SKC BECMG 2400/2402 VRB03KT FM240400 05007KT P6SM SCT100 TEMPO 2404/2406 BKN100 RMK FCST BASED ON AUTO OBS. NXT FCST BY 240000Z

Frequencies

Unicom 123.20 MHz CTAF
Warning: Do not use this data for real-world aviation or navigation. No guarantee of current accuracy is given.